Jump to content

Nighthunter43

Members
  • Content Count

    34
  • Joined

  • Last visited

Community Reputation

37 Excellent

About Nighthunter43

  • Rank
    Advanced Member
  • Birthday 05/11/1961

Profile Information

  • Gender:
    Male
  • Location:
    Gold Coast,Australia

Contact Methods

  • Skype
    nighthunter1961

Recent Profile Visitors

The recent visitors block is disabled and is not being shown to other users.

  1. Actually, I do have South Island Orbx running on P3D, NZCH blends wonderfully into that scenery. Check out his website you might you might change your mind. https://windowlight.co.nz/godzoneWP/
  2. Accu-sim P-51D Military (P3Dv4 Academic)
  3. Check out flight beam they are working on NZWN, hopefully not to far away. http://www.flightbeam.net/
  4. Complete flight from NZWN to 05R NZAA in PMDG 737 600.Time compression added just after take off. Foggy landing ILS approach. https://youtu.be/9vI-LqPNB0o Metar if anyone is interested GLOB 000000Z 00000KT 1/2SM FG BKN018 OVC050 13/13 A2961 Steve
×
×
  • Create New...